createdAt,value
2023-04-21T00:09:37.090Z,16.70
2023-04-21T00:19:59.739Z,16.80
2023-04-21T00:30:21.261Z,16.90
2023-04-21T00:40:44.479Z,16.70
2023-04-21T00:51:07.076Z,16.60
2023-04-21T01:01:31.669Z,16.40
2023-04-21T01:12:03.191Z,16.20
2023-04-21T01:22:26.807Z,16.00
2023-04-21T01:32:48.553Z,15.90
2023-04-21T01:43:11.827Z,15.80
2023-04-21T01:53:35.145Z,15.70
2023-04-21T02:03:58.368Z,15.60
2023-04-21T02:14:20.291Z,15.60
2023-04-21T02:24:44.074Z,15.50
2023-04-21T02:35:08.526Z,15.50
2023-04-21T02:45:32.250Z,15.40
2023-04-21T02:55:53.735Z,15.40
2023-04-21T03:06:16.706Z,15.30
2023-04-21T03:16:38.286Z,15.20
2023-04-21T03:27:03.534Z,15.10
2023-04-21T03:37:27.352Z,14.90
2023-04-21T03:47:54.719Z,14.90
2023-04-21T03:58:16.155Z,14.80
2023-04-21T04:08:38.850Z,14.70
2023-04-21T04:19:00.363Z,14.80
2023-04-21T04:29:23.679Z,14.90
2023-04-21T04:39:45.141Z,14.70
2023-04-21T04:50:08.844Z,14.90
2023-04-21T05:00:31.817Z,15.10
2023-04-21T05:10:54.457Z,15.50
2023-04-21T05:21:15.679Z,15.80
2023-04-21T05:31:42.047Z,15.80
2023-04-21T05:42:15.684Z,16.30
2023-04-21T05:52:39.080Z,16.50
2023-04-21T06:03:00.865Z,16.70
2023-04-21T06:13:23.948Z,17.30
2023-04-21T06:23:45.437Z,17.70
2023-04-21T06:34:08.569Z,18.10
2023-04-21T06:44:32.285Z,18.40
2023-04-21T06:54:55.139Z,19.20
2023-04-21T07:05:16.831Z,18.80
2023-04-21T07:15:39.930Z,19.70
2023-04-21T07:26:01.190Z,20.30
2023-04-21T07:36:24.629Z,20.50
2023-04-21T07:46:46.494Z,21.30
2023-04-21T07:57:10.545Z,21.20
2023-04-21T08:07:32.364Z,21.50
2023-04-21T08:17:56.596Z,21.60
2023-04-21T08:28:18.301Z,21.70
2023-04-21T08:38:44.270Z,22.80
2023-04-21T08:49:06.725Z,23.20
2023-04-21T08:59:29.834Z,23.50
2023-04-21T09:09:54.718Z,24.20
2023-04-21T09:20:19.844Z,24.30
2023-04-21T09:30:43.254Z,24.20
2023-04-21T09:41:06.571Z,24.30
2023-04-21T09:51:42.787Z,24.30
2023-04-21T10:02:13.937Z,25.40
2023-04-21T10:12:36.314Z,25.10
2023-04-21T10:23:00.191Z,24.70
2023-04-21T10:33:25.508Z,25.70
2023-04-21T10:43:51.705Z,25.40
2023-04-21T10:54:15.810Z,26.10
2023-04-21T11:04:40.297Z,26.00
2023-04-21T11:15:07.371Z,26.40
2023-04-21T11:25:31.556Z,26.50
2023-04-21T11:35:57.816Z,26.40
2023-04-21T11:46:25.696Z,26.30
2023-04-21T11:56:48.714Z,27.10
2023-04-21T12:07:11.735Z,26.50
2023-04-21T12:17:39.101Z,26.30
2023-04-21T12:28:02.129Z,27.60
2023-04-21T12:38:23.851Z,27.20
2023-04-21T12:48:46.377Z,25.40
2023-04-21T12:59:09.827Z,26.20
2023-04-21T13:09:33.765Z,25.70
2023-04-21T13:19:55.540Z,26.00
2023-04-21T13:30:18.611Z,25.40
2023-04-21T13:40:46.091Z,26.60
2023-04-21T13:51:09.277Z,26.20
2023-04-21T14:01:30.757Z,26.60
2023-04-21T14:11:53.859Z,26.30
2023-04-21T14:22:15.580Z,26.00
2023-04-21T14:32:39.343Z,26.50
2023-04-21T14:43:01.237Z,26.80
2023-04-21T14:53:24.373Z,26.20
2023-04-21T15:03:46.096Z,26.80
2023-04-21T15:14:09.140Z,26.10
2023-04-21T15:24:30.564Z,25.90
2023-04-21T15:34:53.302Z,26.10
2023-04-21T15:45:17.782Z,26.20
2023-04-21T15:55:40.866Z,25.90
2023-04-21T16:06:04.072Z,25.30
2023-04-21T16:16:28.122Z,25.70
2023-04-21T16:26:49.889Z,25.40
2023-04-21T16:37:14.239Z,25.20
2023-04-21T16:47:41.661Z,25.30
2023-04-21T16:58:05.568Z,25.20
2023-04-21T17:08:27.282Z,25.10
2023-04-21T17:18:50.953Z,24.50
2023-04-21T17:29:12.590Z,24.10
2023-04-21T17:39:35.930Z,24.00
2023-04-21T17:49:57.627Z,23.40
2023-04-21T18:00:21.903Z,22.90
2023-04-21T18:10:43.155Z,22.60
2023-04-21T18:21:06.060Z,22.40
2023-04-21T18:31:28.788Z,22.00
2023-04-21T18:41:52.094Z,21.60
2023-04-21T18:52:14.387Z,21.30
2023-04-21T19:02:37.174Z,21.20
2023-04-21T19:12:58.714Z,21.00
2023-04-21T19:23:21.490Z,20.80
2023-04-21T19:33:43.069Z,20.60
2023-04-21T19:44:06.406Z,20.40
2023-04-21T19:54:27.737Z,20.30
2023-04-21T20:04:50.879Z,20.20
2023-04-21T20:15:13.287Z,20.10
2023-04-21T20:25:36.367Z,19.90
2023-04-21T20:35:58.060Z,19.70
2023-04-21T20:46:21.872Z,19.60
2023-04-21T20:56:43.804Z,19.30
2023-04-21T21:07:06.636Z,19.10
2023-04-21T21:17:30.476Z,19.00
2023-04-21T21:27:53.155Z,18.80
2023-04-21T21:38:14.447Z,18.90
2023-04-21T21:48:37.295Z,18.90
2023-04-21T21:58:58.887Z,18.80
2023-04-21T22:09:22.195Z,18.60
2023-04-21T22:19:43.981Z,18.20
2023-04-21T22:30:08.725Z,18.10
2023-04-21T22:40:31.045Z,17.90
2023-04-21T22:50:54.334Z,17.70
2023-04-21T23:01:17.206Z,17.50
2023-04-21T23:11:40.545Z,17.50
2023-04-21T23:22:01.813Z,17.20
2023-04-21T23:32:24.603Z,17.10
2023-04-21T23:42:47.147Z,17.00
2023-04-21T23:53:10.386Z,16.80
